createdAt,value
2023-03-18T00:01:27.292Z,4.67
2023-03-18T00:03:54.349Z,4.60
2023-03-18T00:06:22.381Z,6.33
2023-03-18T00:08:50.906Z,5.53
2023-03-18T00:11:20.173Z,4.20
2023-03-18T00:13:48.202Z,3.43
2023-03-18T00:16:16.018Z,3.80
2023-03-18T00:18:43.496Z,3.50
2023-03-18T00:21:11.271Z,5.00
2023-03-18T00:23:38.881Z,4.23
2023-03-18T00:26:06.008Z,3.43
2023-03-18T00:28:33.037Z,5.73
2023-03-18T00:31:08.857Z,4.10
2023-03-18T00:33:38.260Z,6.20
2023-03-18T00:36:06.784Z,7.50
2023-03-18T00:38:33.875Z,5.70
2023-03-18T00:41:15.995Z,4.60
2023-03-18T00:43:52.926Z,7.20
2023-03-18T00:46:26.898Z,4.00
2023-03-18T00:48:56.458Z,4.53
2023-03-18T00:51:26.119Z,4.53
2023-03-18T00:53:55.804Z,5.13
2023-03-18T00:56:25.817Z,4.40
2023-03-18T00:58:54.046Z,4.60
2023-03-18T01:01:22.566Z,3.70
2023-03-18T01:03:50.472Z,4.60
2023-03-18T01:06:22.764Z,5.00
2023-03-18T01:08:50.476Z,3.50
2023-03-18T01:11:18.247Z,6.30
2023-03-18T01:13:46.402Z,3.50
2023-03-18T01:16:14.504Z,6.73
2023-03-18T01:18:41.951Z,3.57
2023-03-18T01:21:10.466Z,5.63
2023-03-18T01:23:38.492Z,5.07
2023-03-18T01:26:06.766Z,4.63
2023-03-18T01:28:34.355Z,5.27
2023-03-18T01:31:01.698Z,3.60
2023-03-18T01:33:30.161Z,6.30
2023-03-18T01:36:00.082Z,4.10
2023-03-18T01:38:30.558Z,4.07
2023-03-18T01:40:59.127Z,4.63
2023-03-18T01:43:30.763Z,3.93
2023-03-18T01:46:00.871Z,3.27
2023-03-18T01:48:34.100Z,4.87
2023-03-18T01:51:06.112Z,3.67
2023-03-18T01:53:39.306Z,5.53
2023-03-18T01:56:07.987Z,3.73
2023-03-18T01:58:45.548Z,5.83
2023-03-18T02:01:20.409Z,6.73
2023-03-18T02:03:48.511Z,8.00
2023-03-18T02:06:15.464Z,6.17
2023-03-18T02:08:42.276Z,4.47
2023-03-18T02:11:10.660Z,7.53
2023-03-18T02:13:41.753Z,7.60
2023-03-18T02:16:34.323Z,5.80
2023-03-18T02:19:31.568Z,6.33
2023-03-18T02:22:10.145Z,4.37
2023-03-18T02:25:04.148Z,6.80
2023-03-18T02:27:35.641Z,7.07
2023-03-18T02:30:21.198Z,9.57
2023-03-18T02:32:51.343Z,6.50
2023-03-18T02:35:18.105Z,7.07
2023-03-18T02:37:45.141Z,5.90
2023-03-18T02:40:19.189Z,5.50
2023-03-18T02:42:47.107Z,5.40
2023-03-18T02:45:30.963Z,5.90
2023-03-18T02:48:00.131Z,5.23
2023-03-18T02:50:27.092Z,8.33
2023-03-18T02:52:54.154Z,10.80
2023-03-18T02:55:21.308Z,7.83
2023-03-18T02:57:48.412Z,7.73
2023-03-18T03:00:16.612Z,5.60
2023-03-18T03:02:43.829Z,5.63
2023-03-18T03:05:11.296Z,5.83
2023-03-18T03:07:38.241Z,8.53
2023-03-18T03:10:07.000Z,6.93
2023-03-18T03:12:34.807Z,5.70
2023-03-18T03:15:01.705Z,6.40
2023-03-18T03:17:31.368Z,7.33
2023-03-18T03:19:58.333Z,7.93
2023-03-18T03:22:25.431Z,6.73
2023-03-18T03:24:52.651Z,6.53
2023-03-18T03:27:19.926Z,8.07
2023-03-18T03:29:46.840Z,8.13
2023-03-18T03:32:14.133Z,8.57
2023-03-18T03:34:41.750Z,8.70
2023-03-18T03:37:09.221Z,9.13
2023-03-18T03:39:36.173Z,8.03
2023-03-18T03:42:03.068Z,7.30
2023-03-18T03:44:30.663Z,7.80
2023-03-18T03:46:57.996Z,7.83
2023-03-18T03:49:25.351Z,9.93
2023-03-18T03:51:52.484Z,6.57
2023-03-18T03:54:20.170Z,10.73
2023-03-18T03:56:48.141Z,6.50
2023-03-18T03:59:15.133Z,7.07
2023-03-18T04:01:42.114Z,10.20
2023-03-18T04:04:08.967Z,6.70
2023-03-18T04:06:35.988Z,7.47
2023-03-18T04:09:04.577Z,7.03
2023-03-18T04:11:31.597Z,5.77
2023-03-18T04:13:58.493Z,6.80
2023-03-18T04:16:25.363Z,7.60
2023-03-18T04:18:52.227Z,6.67
2023-03-18T04:21:19.190Z,9.77
2023-03-18T04:23:46.705Z,9.40
2023-03-18T04:26:13.612Z,10.33
2023-03-18T04:28:40.825Z,9.23
2023-03-18T04:31:08.010Z,10.93
2023-03-18T04:33:35.035Z,7.57
2023-03-18T04:36:01.940Z,9.00
2023-03-18T04:38:29.051Z,10.87
2023-03-18T04:40:58.440Z,8.00
2023-03-18T04:43:25.410Z,8.57
2023-03-18T04:45:53.237Z,14.57
2023-03-18T04:48:20.114Z,8.83
2023-03-18T04:50:47.076Z,10.33
2023-03-18T04:53:13.920Z,10.50
2023-03-18T04:55:41.108Z,12.73
2023-03-18T04:58:07.959Z,12.60
2023-03-18T05:00:35.340Z,9.00
2023-03-18T05:03:03.376Z,9.93
2023-03-18T05:05:31.208Z,9.07
2023-03-18T05:07:58.701Z,9.00
2023-03-18T05:10:25.801Z,13.60
2023-03-18T05:12:52.790Z,10.93
2023-03-18T05:15:19.894Z,10.63
2023-03-18T05:17:47.672Z,11.07
2023-03-18T05:20:14.866Z,11.13
2023-03-18T05:22:42.385Z,11.37
2023-03-18T05:25:11.643Z,10.47
2023-03-18T05:27:39.150Z,12.20
2023-03-18T05:30:07.439Z,9.23
2023-03-18T05:32:34.388Z,11.77
2023-03-18T05:35:01.467Z,11.53
2023-03-18T05:37:28.479Z,12.67
2023-03-18T05:39:55.621Z,11.67
2023-03-18T05:42:22.638Z,13.17
2023-03-18T05:44:50.103Z,17.03
2023-03-18T05:47:17.038Z,11.67
2023-03-18T05:49:43.968Z,12.63
2023-03-18T05:52:11.113Z,14.30
2023-03-18T05:54:38.393Z,14.27
2023-03-18T05:57:05.333Z,13.83
2023-03-18T05:59:32.230Z,14.30
2023-03-18T06:01:59.358Z,12.93
2023-03-18T06:04:27.364Z,16.17
2023-03-18T06:06:55.408Z,16.40
2023-03-18T06:09:22.695Z,14.50
2023-03-18T06:11:49.577Z,13.43
2023-03-18T06:14:16.701Z,12.23
2023-03-18T06:16:45.021Z,17.20
2023-03-18T06:19:12.178Z,16.17
2023-03-18T06:21:39.936Z,14.93
2023-03-18T06:24:08.437Z,16.63
2023-03-18T06:26:35.773Z,15.50
2023-03-18T06:29:04.233Z,13.13
2023-03-18T06:31:31.610Z,12.43
2023-03-18T06:34:00.877Z,12.73
2023-03-18T06:36:28.447Z,15.10
2023-03-18T06:38:56.251Z,14.93
2023-03-18T06:41:23.113Z,14.03
2023-03-18T06:43:50.837Z,13.37
2023-03-18T06:46:18.662Z,18.60
2023-03-18T06:48:45.818Z,13.53
2023-03-18T06:51:12.884Z,15.97
2023-03-18T06:53:40.345Z,13.20
2023-03-18T06:56:08.128Z,13.63
2023-03-18T06:58:35.038Z,13.10
2023-03-18T07:01:03.257Z,12.70
2023-03-18T07:03:30.235Z,15.50
2023-03-18T07:05:57.553Z,16.90
2023-03-18T07:08:24.433Z,14.27
2023-03-18T07:10:57.369Z,13.27
2023-03-18T07:13:24.892Z,16.20
2023-03-18T07:15:51.856Z,14.03
2023-03-18T07:18:18.880Z,16.47
2023-03-18T07:20:46.190Z,15.50
2023-03-18T07:23:13.434Z,14.07
2023-03-18T07:25:40.365Z,25.23
2023-03-18T07:28:07.482Z,16.00
2023-03-18T07:30:35.216Z,13.20
2023-03-18T07:33:02.549Z,13.17
2023-03-18T07:35:29.776Z,13.70
2023-03-18T07:37:57.734Z,12.57
2023-03-18T07:40:24.930Z,14.23
2023-03-18T07:42:51.919Z,12.30
2023-03-18T07:45:18.787Z,13.20
2023-03-18T07:47:47.174Z,13.63
2023-03-18T07:50:14.533Z,12.80
2023-03-18T07:52:42.199Z,13.67
2023-03-18T07:55:11.742Z,17.67
2023-03-18T07:57:39.672Z,14.00
2023-03-18T08:00:13.614Z,13.67
2023-03-18T08:02:40.689Z,11.80
2023-03-18T08:05:08.326Z,17.93
2023-03-18T08:07:36.421Z,11.70
2023-03-18T08:10:04.153Z,15.27
2023-03-18T08:12:49.022Z,11.73
2023-03-18T08:15:19.067Z,13.50
2023-03-18T08:17:46.086Z,11.57
2023-03-18T08:20:13.667Z,13.07
2023-03-18T08:22:40.475Z,15.60
2023-03-18T08:25:07.945Z,13.87
2023-03-18T08:27:35.489Z,15.37
2023-03-18T08:30:03.760Z,14.17
2023-03-18T08:32:31.119Z,14.77
2023-03-18T08:34:58.197Z,12.43
2023-03-18T08:37:25.206Z,15.97
2023-03-18T08:39:52.065Z,12.07
2023-03-18T08:42:19.486Z,14.73
2023-03-18T08:44:46.447Z,15.90
2023-03-18T08:47:13.546Z,15.47
2023-03-18T08:49:40.524Z,15.57
2023-03-18T08:52:07.706Z,12.63
2023-03-18T08:54:35.324Z,15.10
2023-03-18T08:57:03.121Z,13.53
2023-03-18T08:59:29.976Z,14.67
2023-03-18T09:01:56.735Z,14.43
2023-03-18T09:04:27.335Z,16.90
2023-03-18T09:06:54.236Z,16.33
2023-03-18T09:09:22.910Z,20.53
2023-03-18T09:11:53.154Z,17.20
2023-03-18T09:14:20.318Z,17.23
2023-03-18T09:16:47.516Z,18.37
2023-03-18T09:19:14.631Z,16.77
2023-03-18T09:21:41.651Z,15.10
2023-03-18T09:24:08.718Z,15.03
2023-03-18T09:26:35.646Z,15.20
2023-03-18T09:29:02.889Z,15.47
2023-03-18T09:31:30.887Z,19.07
2023-03-18T09:33:57.745Z,15.63
2023-03-18T09:36:24.797Z,15.03
2023-03-18T09:38:51.857Z,15.10
2023-03-18T09:41:21.541Z,17.93
2023-03-18T09:44:15.360Z,17.53
2023-03-18T09:47:06.939Z,14.17
2023-03-18T09:49:59.515Z,17.17
2023-03-18T09:52:44.157Z,13.10
2023-03-18T09:55:30.646Z,15.40
2023-03-18T09:58:03.338Z,15.60
2023-03-18T10:00:34.795Z,12.43
2023-03-18T10:03:06.466Z,17.10
2023-03-18T10:05:50.166Z,13.93
2023-03-18T10:08:54.596Z,16.87
2023-03-18T10:11:31.162Z,11.23
2023-03-18T10:14:27.318Z,15.77
2023-03-18T10:17:03.796Z,11.10
2023-03-18T10:19:31.914Z,10.50
2023-03-18T10:22:19.209Z,11.23
2023-03-18T10:24:51.919Z,9.63
2023-03-18T10:27:38.931Z,9.63
2023-03-18T10:30:43.652Z,12.93
2023-03-18T10:33:22.276Z,10.00
2023-03-18T10:36:05.652Z,11.60
2023-03-18T10:38:45.062Z,10.87
2023-03-18T10:41:30.021Z,9.80
2023-03-18T10:43:57.685Z,8.67
2023-03-18T10:46:27.345Z,8.87
2023-03-18T10:49:10.973Z,8.53
2023-03-18T10:51:50.463Z,11.43
2023-03-18T10:54:36.945Z,9.57
2023-03-18T10:57:04.318Z,7.37
2023-03-18T10:59:31.584Z,8.83
2023-03-18T11:02:13.955Z,7.73
2023-03-18T11:04:57.978Z,7.70
2023-03-18T11:07:26.975Z,7.90
2023-03-18T11:09:55.057Z,8.50
2023-03-18T11:12:29.019Z,10.03
2023-03-18T11:14:56.785Z,9.27
2023-03-18T11:17:26.645Z,8.83
2023-03-18T11:20:08.300Z,7.67
2023-03-18T11:22:37.214Z,8.30
2023-03-18T11:25:16.901Z,8.00
2023-03-18T11:27:49.506Z,8.20
2023-03-18T11:30:34.890Z,8.90
2023-03-18T11:33:10.780Z,13.20
2023-03-18T11:35:50.466Z,13.80
2023-03-18T11:38:29.278Z,20.27
2023-03-18T11:41:26.673Z,10.60
2023-03-18T11:44:02.470Z,10.43
2023-03-18T11:46:40.874Z,15.90
2023-03-18T11:49:15.154Z,8.60
2023-03-18T11:52:00.513Z,9.00
2023-03-18T11:54:46.132Z,10.97
2023-03-18T11:57:41.934Z,12.23
2023-03-18T12:00:21.053Z,10.00
2023-03-18T12:03:15.658Z,10.77
2023-03-18T12:06:07.179Z,9.73
2023-03-18T12:08:50.585Z,17.57
2023-03-18T12:11:28.964Z,17.07
2023-03-18T12:14:01.719Z,19.87
2023-03-18T12:16:43.751Z,14.43
2023-03-18T12:19:44.259Z,10.33
2023-03-18T12:22:26.735Z,9.70
2023-03-18T12:25:02.798Z,16.03
2023-03-18T12:27:40.739Z,8.27
2023-03-18T12:30:35.701Z,9.13
2023-03-18T12:33:27.433Z,5.77
2023-03-18T12:36:15.761Z,8.13
2023-03-18T12:39:14.863Z,8.30
2023-03-18T12:42:03.803Z,5.53
2023-03-18T12:44:50.153Z,8.40
2023-03-18T12:47:30.416Z,7.13
2023-03-18T12:50:13.036Z,6.17
2023-03-18T12:52:46.651Z,7.73
2023-03-18T12:55:25.557Z,7.13
2023-03-18T12:57:59.840Z,8.87
2023-03-18T13:00:40.323Z,8.47
2023-03-18T13:03:13.730Z,6.93
2023-03-18T13:05:47.911Z,7.13
2023-03-18T13:08:41.875Z,6.23
2023-03-18T13:11:22.223Z,7.73
2023-03-18T13:13:55.200Z,5.93
2023-03-18T13:16:25.959Z,23.50
2023-03-18T13:18:56.422Z,6.63
2023-03-18T13:21:29.899Z,6.53
2023-03-18T13:24:23.077Z,5.00
2023-03-18T13:27:24.816Z,5.87
2023-03-18T13:30:02.232Z,6.47
2023-03-18T13:32:51.082Z,5.27
2023-03-18T13:35:43.820Z,4.90
2023-03-18T13:38:31.302Z,14.87
2023-03-18T13:41:29.014Z,6.17
2023-03-18T13:43:59.054Z,9.77
2023-03-18T13:46:30.888Z,6.57
2023-03-18T13:49:00.695Z,7.57
2023-03-18T13:51:28.406Z,14.97
2023-03-18T13:54:01.243Z,12.10
2023-03-18T13:56:55.755Z,10.57
2023-03-18T13:59:34.827Z,10.63
2023-03-18T14:02:23.206Z,9.20
2023-03-18T14:04:52.445Z,9.33
2023-03-18T14:07:23.906Z,10.17
2023-03-18T14:10:18.730Z,10.70
2023-03-18T14:12:51.438Z,10.73
2023-03-18T14:15:29.946Z,10.43
2023-03-18T14:17:58.802Z,13.07
2023-03-18T14:20:38.793Z,11.40
2023-03-18T14:23:42.317Z,10.10
2023-03-18T14:26:24.433Z,12.63
2023-03-18T14:29:16.385Z,13.53
2023-03-18T14:31:43.411Z,81.20
2023-03-18T14:34:19.636Z,20.27
2023-03-18T14:37:18.086Z,11.53
2023-03-18T14:39:48.234Z,24.17
2023-03-18T14:42:28.867Z,255.87
2023-03-18T14:45:14.394Z,201.60
2023-03-18T14:47:54.071Z,16.43
2023-03-18T14:50:40.748Z,52.37
2023-03-18T14:53:15.560Z,15.17
2023-03-18T14:55:44.090Z,12.63
2023-03-18T14:58:19.638Z,14.37
2023-03-18T15:00:51.753Z,15.17
2023-03-18T15:03:27.923Z,15.60
2023-03-18T15:06:00.993Z,22.97
2023-03-18T15:08:48.202Z,22.20
2023-03-18T15:11:16.802Z,17.37
2023-03-18T15:13:45.017Z,17.00
2023-03-18T15:16:18.447Z,19.00
2023-03-18T15:18:45.900Z,18.00
2023-03-18T15:21:23.466Z,17.97
2023-03-18T15:23:53.147Z,18.13
2023-03-18T15:26:24.160Z,16.70
2023-03-18T15:28:59.066Z,19.87
2023-03-18T15:31:38.901Z,17.90
2023-03-18T15:34:20.453Z,18.07
2023-03-18T15:37:01.730Z,24.57
2023-03-18T15:39:30.978Z,19.57
2023-03-18T15:42:00.946Z,16.87
2023-03-18T15:44:36.304Z,19.83
2023-03-18T15:47:16.883Z,17.90
2023-03-18T15:49:54.776Z,19.13
2023-03-18T15:52:43.516Z,17.13
2023-03-18T15:55:30.412Z,18.37
2023-03-18T15:57:58.632Z,17.77
2023-03-18T16:00:25.884Z,17.67
2023-03-18T16:02:52.972Z,17.30
2023-03-18T16:05:26.025Z,16.87
2023-03-18T16:07:54.103Z,16.70
2023-03-18T16:10:23.096Z,17.80
2023-03-18T16:12:58.281Z,15.70
2023-03-18T16:15:26.842Z,17.90
2023-03-18T16:17:55.546Z,18.00
2023-03-18T16:20:24.466Z,17.93
2023-03-18T16:22:52.200Z,16.23
2023-03-18T16:25:19.777Z,19.03
2023-03-18T16:27:49.677Z,18.23
2023-03-18T16:30:26.229Z,16.33
2023-03-18T16:32:54.926Z,17.17
2023-03-18T16:35:24.793Z,15.40
2023-03-18T16:37:53.354Z,16.77
2023-03-18T16:40:26.676Z,16.20
2023-03-18T16:42:54.629Z,17.00
2023-03-18T16:45:30.376Z,19.17
2023-03-18T16:48:02.839Z,22.33
2023-03-18T16:50:34.048Z,18.63
2023-03-18T16:53:01.285Z,19.27
2023-03-18T16:55:29.096Z,22.97
2023-03-18T16:57:59.004Z,19.77
2023-03-18T17:00:34.617Z,20.63
2023-03-18T17:03:02.420Z,20.70
2023-03-18T17:05:29.449Z,21.20
2023-03-18T17:07:56.436Z,24.13
2023-03-18T17:10:26.519Z,22.13
2023-03-18T17:12:57.682Z,21.73
2023-03-18T17:15:29.318Z,22.17
2023-03-18T17:17:58.768Z,19.63
2023-03-18T17:20:30.611Z,18.43
2023-03-18T17:22:57.443Z,18.87
2023-03-18T17:25:27.400Z,20.40
2023-03-18T17:27:57.863Z,19.73
2023-03-18T17:30:37.065Z,26.57
2023-03-18T17:33:05.500Z,23.53
2023-03-18T17:35:33.173Z,26.83
2023-03-18T17:38:00.951Z,24.27
2023-03-18T17:40:30.673Z,24.00
2023-03-18T17:42:57.687Z,22.13
2023-03-18T17:45:32.608Z,23.73
2023-03-18T17:48:22.568Z,23.43
2023-03-18T17:50:51.840Z,23.70
2023-03-18T17:53:25.572Z,26.33
2023-03-18T17:55:53.882Z,22.73
2023-03-18T17:58:23.333Z,23.30
2023-03-18T18:00:50.463Z,25.70
2023-03-18T18:03:26.847Z,25.17
2023-03-18T18:05:57.691Z,23.40
2023-03-18T18:08:25.866Z,28.60
2023-03-18T18:10:58.353Z,27.10
2023-03-18T18:13:25.250Z,27.17
2023-03-18T18:15:52.843Z,28.87
2023-03-18T18:18:25.982Z,27.33
2023-03-18T18:20:58.697Z,29.23
2023-03-18T18:23:31.411Z,28.20
2023-03-18T18:26:09.436Z,30.40
2023-03-18T18:28:46.535Z,28.73
2023-03-18T18:31:14.782Z,31.97
2023-03-18T18:33:44.364Z,28.57
2023-03-18T18:36:13.097Z,32.53
2023-03-18T18:38:43.805Z,29.37
2023-03-18T18:41:10.997Z,29.60
2023-03-18T18:43:38.077Z,30.37
2023-03-18T18:46:13.600Z,29.20
2023-03-18T18:48:41.044Z,29.60
2023-03-18T18:51:16.054Z,30.30
2023-03-18T18:53:43.650Z,31.10
2023-03-18T18:56:20.051Z,31.70
2023-03-18T18:58:47.987Z,32.50
2023-03-18T19:01:15.305Z,29.17
2023-03-18T19:03:43.038Z,29.73
2023-03-18T19:06:31.514Z,27.53
2023-03-18T19:09:00.880Z,31.40
2023-03-18T19:11:28.713Z,25.53
2023-03-18T19:14:20.388Z,28.07
2023-03-18T19:16:48.528Z,30.33
2023-03-18T19:19:21.393Z,31.53
2023-03-18T19:21:49.858Z,29.30
2023-03-18T19:24:36.102Z,28.77
2023-03-18T19:27:07.311Z,32.40
2023-03-18T19:29:34.453Z,33.17
2023-03-18T19:32:01.942Z,35.20
2023-03-18T19:34:32.468Z,34.30
2023-03-18T19:37:03.015Z,37.73
2023-03-18T19:39:30.158Z,34.93
2023-03-18T19:41:59.976Z,39.53
2023-03-18T19:44:27.431Z,39.57
2023-03-18T19:46:56.531Z,41.23
2023-03-18T19:49:35.471Z,42.27
2023-03-18T19:52:16.745Z,35.23
2023-03-18T19:54:45.421Z,33.90
2023-03-18T19:57:18.361Z,36.77
2023-03-18T19:59:48.652Z,35.83
2023-03-18T20:02:21.184Z,34.83
2023-03-18T20:04:50.293Z,33.93
2023-03-18T20:07:19.045Z,36.10
2023-03-18T20:09:46.309Z,35.80
2023-03-18T20:12:37.902Z,42.90
2023-03-18T20:15:08.142Z,44.80
2023-03-18T20:17:46.363Z,41.50
2023-03-18T20:20:16.926Z,38.03
2023-03-18T20:22:48.275Z,37.60
2023-03-18T20:25:28.583Z,36.00
2023-03-18T20:27:57.432Z,43.27
2023-03-18T20:30:27.065Z,42.53
2023-03-18T20:32:54.583Z,39.50
2023-03-18T20:35:22.948Z,44.10
2023-03-18T20:37:49.975Z,45.47
2023-03-18T20:40:24.092Z,48.50
2023-03-18T20:42:52.814Z,43.97
2023-03-18T20:45:21.192Z,44.33
2023-03-18T20:47:48.535Z,51.10
2023-03-18T20:50:21.421Z,59.07
2023-03-18T20:52:48.780Z,44.20
2023-03-18T20:55:25.725Z,41.37
2023-03-18T20:57:53.659Z,47.23
2023-03-18T21:00:29.398Z,47.73
2023-03-18T21:02:58.531Z,43.00
2023-03-18T21:05:26.751Z,48.57
2023-03-18T21:07:53.945Z,41.40
2023-03-18T21:10:26.442Z,42.77
2023-03-18T21:12:54.108Z,45.33
2023-03-18T21:15:27.348Z,46.27
2023-03-18T21:17:55.304Z,45.83
2023-03-18T21:20:27.412Z,45.00
2023-03-18T21:22:56.433Z,43.93
2023-03-18T21:25:29.001Z,46.20
2023-03-18T21:27:56.327Z,45.30
2023-03-18T21:30:24.034Z,43.87
2023-03-18T21:32:51.284Z,48.47
2023-03-18T21:35:21.946Z,43.97
2023-03-18T21:37:49.525Z,49.77
2023-03-18T21:40:22.647Z,48.83
2023-03-18T21:42:51.152Z,47.50
2023-03-18T21:45:21.315Z,51.93
2023-03-18T21:47:48.488Z,50.50
2023-03-18T21:50:26.882Z,49.53
2023-03-18T21:52:54.673Z,45.63
2023-03-18T21:55:22.752Z,46.33
2023-03-18T21:57:49.740Z,48.70
2023-03-18T22:00:20.891Z,46.50
2023-03-18T22:02:48.103Z,45.10
2023-03-18T22:05:21.924Z,48.23
2023-03-18T22:07:50.700Z,47.20
2023-03-18T22:10:23.424Z,43.57
2023-03-18T22:12:50.880Z,46.30
2023-03-18T22:15:23.734Z,42.83
2023-03-18T22:17:51.600Z,41.67
2023-03-18T22:20:18.651Z,42.37
2023-03-18T22:22:45.949Z,37.27
2023-03-18T22:25:36.586Z,35.57
2023-03-18T22:28:03.841Z,32.53
2023-03-18T22:30:33.145Z,29.90
2023-03-18T22:33:02.322Z,27.63
2023-03-18T22:35:30.195Z,27.80
2023-03-18T22:37:57.327Z,26.60
2023-03-18T22:40:29.826Z,25.57
2023-03-18T22:43:00.150Z,27.30
2023-03-18T22:45:34.416Z,25.37
2023-03-18T22:48:04.449Z,25.47
2023-03-18T22:50:33.957Z,23.93
2023-03-18T22:53:03.962Z,24.37
2023-03-18T22:55:36.949Z,22.90
2023-03-18T22:58:03.929Z,22.57
2023-03-18T23:00:30.933Z,22.80
2023-03-18T23:02:58.811Z,25.50
2023-03-18T23:05:29.730Z,22.03
2023-03-18T23:07:57.469Z,22.63
2023-03-18T23:10:25.148Z,23.73
2023-03-18T23:12:52.246Z,23.27
2023-03-18T23:15:21.753Z,23.03
2023-03-18T23:17:49.537Z,23.43
2023-03-18T23:20:18.286Z,21.93
2023-03-18T23:22:46.038Z,22.13
2023-03-18T23:25:16.844Z,24.13
2023-03-18T23:27:44.579Z,24.80
2023-03-18T23:30:13.526Z,25.63
2023-03-18T23:32:41.285Z,24.00
2023-03-18T23:35:09.928Z,23.63
2023-03-18T23:37:36.819Z,24.63
2023-03-18T23:40:05.478Z,27.73
2023-03-18T23:42:32.498Z,28.37
2023-03-18T23:44:59.503Z,28.33
2023-03-18T23:47:26.423Z,26.00
2023-03-18T23:49:53.407Z,27.40
2023-03-18T23:52:20.318Z,53.87
2023-03-18T23:54:47.462Z,40.53
2023-03-18T23:57:15.161Z,37.13
2023-03-18T23:59:42.310Z,33.70
